Time;durP1;ratioP1;P1;durP2;ratioP2;P2;SDS_P1;SDS_P2;PMS_P1;PMS_P2;Temp;Humidity;BMP_temperature;BMP_pressure;BME280_temperature;BME280_humidity;BME280_pressure;Samples;Min_cycle;Max_cycle;Signal;HPM_P1;HPM_P2
2021/03/01 00:01:38;;;;;;;0.40;0.40;;;;;;;-0.40;100.00;101347.12;1781211;80;21190;-49
2021/03/01 00:04:39;;;;;;;0.00;0.00;;;;;;;-0.39;100.00;101349.63;1766394;80;21142;-50
2021/03/01 00:07:39;;;;;;;0.10;0.10;;;;;;;-0.37;100.00;101354.31;1772770;80;21151;-49
2021/03/01 00:10:39;;;;;;;0.17;0.17;;;;;;;-0.37;100.00;101351.63;1746141;80;21129;-49
2021/03/01 00:13:40;;;;;;;0.10;0.10;;;;;;;-0.35;100.00;101355.45;1777996;80;21182;-49
2021/03/01 00:16:42;;;;;;;0.20;0.20;;;;;;;-0.32;100.00;101352.39;1743090;80;21059;-49
2021/03/01 00:19:44;;;;;;;0.10;0.10;;;;;;;-0.30;100.00;101357.07;1762596;80;21584;-49
2021/03/01 00:22:50;;;;;;;0.95;0.95;;;;;;;-0.29;100.00;101361.44;1759418;80;21125;-49
2021/03/01 00:25:50;;;;;;;0.85;0.75;;;;;;;-0.30;100.00;101361.92;1763463;81;21541;-49
2021/03/01 00:28:51;;;;;;;0.10;0.10;;;;;;;-0.27;100.00;101364.78;1759833;80;21174;-50
2021/03/01 00:31:51;;;;;;;0.40;0.40;;;;;;;-0.27;100.00;101368.30;1761122;81;21130;-49
2021/03/01 00:34:52;;;;;;;0.30;0.30;;;;;;;-0.26;100.00;101369.95;1748366;81;21202;-49
2021/03/01 00:37:52;;;;;;;0.10;0.10;;;;;;;-0.26;100.00;101365.92;1741106;81;21142;-49
2021/03/01 00:40:53;;;;;;;0.08;0.08;;;;;;;-0.24;100.00;101365.75;1754945;80;21475;-49
2021/03/01 00:43:54;;;;;;;0.00;0.00;;;;;;;-0.21;100.00;101368.05;1756596;81;21131;-49
2021/03/01 00:46:55;;;;;;;1.55;1.45;;;;;;;-0.20;100.00;101370.22;1736888;81;21146;-49
2021/03/01 00:49:55;;;;;;;0.30;0.30;;;;;;;-0.19;100.00;101372.73;1754394;81;21187;-49
2021/03/01 00:52:56;;;;;;;0.20;0.20;;;;;;;-0.18;100.00;101364.98;1785705;80;21427;-49
2021/03/01 00:55:57;;;;;;;0.30;0.30;;;;;;;-0.16;100.00;101373.70;1756627;81;21126;-49
2021/03/01 00:58:58;;;;;;;0.30;0.30;;;;;;;-0.17;100.00;101376.08;1772074;79;21122;-46
2021/03/01 01:01:58;;;;;;;0.47;0.40;;;;;;;-0.17;100.00;101373.39;1787936;80;21151;-46
2021/03/01 01:05:03;;;;;;;0.00;0.00;;;;;;;-0.17;100.00;101385.48;1787649;80;21110;-46
2021/03/01 01:08:04;;;;;;;0.20;0.20;;;;;;;-0.17;100.00;101392.19;1786386;80;21139;-46
2021/03/01 01:11:04;;;;;;;0.10;0.10;;;;;;;-0.17;100.00;101393.54;1787639;80;21139;-46
2021/03/01 01:14:04;;;;;;;0.10;0.10;;;;;;;-0.18;100.00;101390.51;1753870;80;21148;-46
2021/03/01 01:17:05;;;;;;;0.10;0.10;;;;;;;-0.17;100.00;101394.88;1756810;81;21157;-46
2021/03/01 01:20:05;;;;;;;0.00;0.00;;;;;;;-0.14;100.00;101393.16;1762119;79;21139;-46
2021/03/01 01:23:06;;;;;;;0.23;0.23;;;;;;;-0.12;100.00;101399.19;1763400;80;21110;-46
2021/03/01 01:26:06;;;;;;;2.30;0.70;;;;;;;-0.12;100.00;101405.91;1758018;81;21136;-46
2021/03/01 01:29:06;;;;;;;0.13;0.13;;;;;;;-0.12;100.00;101401.88;1725383;81;21120;-46
2021/03/01 01:32:07;;;;;;;0.10;0.10;;;;;;;-0.10;100.00;101394.47;1729374;82;21226;-46
2021/03/01 01:35:07;;;;;;;0.10;0.10;;;;;;;-0.12;100.00;101388.95;1731877;81;21147;-45
2021/03/01 01:38:08;;;;;;;0.33;0.33;;;;;;;-0.13;100.00;101392.13;1728705;81;21576;-45
2021/03/01 01:41:09;;;;;;;0.10;0.10;;;;;;;-0.14;100.00;101395.84;1726028;81;21172;-47
2021/03/01 01:44:10;;;;;;;0.17;0.17;;;;;;;-0.15;100.00;101400.05;1760132;81;21150;-45
2021/03/01 01:47:11;;;;;;;0.30;0.30;;;;;;;-0.18;100.00;101403.94;1730343;81;21507;-46
2021/03/01 01:50:14;;;;;;;0.13;0.13;;;;;;;-0.17;100.00;101412.83;1756841;80;21126;-46
2021/03/01 01:53:14;;;;;;;0.00;0.00;;;;;;;-0.17;100.00;101419.06;1731136;81;21147;-46
2021/03/01 01:56:14;;;;;;;0.10;0.10;;;;;;;-0.19;100.00;101421.09;1729380;81;21154;-46
2021/03/01 01:59:14;;;;;;;0.85;0.47;;;;;;;-0.20;100.00;101426.13;1729265;81;21222;-46
2021/03/01 02:02:15;;;;;;;0.00;0.00;;;;;;;-0.19;100.00;101433.18;1732980;82;21129;-46
2021/03/01 02:05:16;;;;;;;0.10;0.10;;;;;;;-0.19;100.00;101434.52;1700228;84;21168;-46
2021/03/01 02:08:21;;;;;;;0.00;0.00;;;;;;;-0.18;100.00;101440.20;1735358;80;21118;-46
2021/03/01 02:11:54;;;;;;;0.42;0.42;;;;;;;-0.18;100.00;101448.78;1723276;80;21574;-45
2021/03/01 02:15:19;;;;;;;0.20;0.20;;;;;;;-0.18;100.00;101459.02;1738676;82;21174;-46
2021/03/01 02:18:19;;;;;;;0.25;0.25;;;;;;;-0.16;100.00;101463.70;1738573;80;21572;-46
2021/03/01 02:21:20;;;;;;;0.72;0.72;;;;;;;-0.16;100.00;101469.08;1737871;82;21142;-46
2021/03/01 02:24:29;;;;;;;0.20;0.20;;;;;;;-0.14;100.00;101466.22;1722709;81;21166;-46
2021/03/01 02:27:37;;;;;;;0.95;0.80;;;;;;;-0.12;100.00;101467.70;1751249;81;21580;-46
2021/03/01 02:30:39;;;;;;;0.00;0.00;;;;;;;-0.10;100.00;101462.98;1733259;82;21173;-46
2021/03/01 02:33:57;;;;;;;0.17;0.17;;;;;;;-0.09;100.00;101476.72;1737990;80;21154;-46
2021/03/01 02:37:02;;;;;;;0.00;0.00;;;;;;;-0.09;100.00;101475.38;1788010;80;21141;-46
2021/03/01 02:40:02;;;;;;;0.17;0.17;;;;;;;-0.06;100.00;101485.75;1772341;80;21419;-46
2021/03/01 02:43:04;;;;;;;0.00;0.00;;;;;;;-0.04;100.00;101491.78;1757762;80;21154;-47
2021/03/01 02:46:04;;;;;;;0.10;0.10;;;;;;;-0.03;100.00;101494.78;1767165;81;21466;-46
2021/03/01 02:49:04;;;;;;;0.00;0.00;;;;;;;-0.02;100.00;101495.13;1758991;80;21625;-45
2021/03/01 02:52:05;;;;;;;0.00;0.00;;;;;;;-0.02;100.00;101492.44;1760400;80;21173;-46
2021/03/01 02:55:05;;;;;;;0.75;0.30;;;;;;;-0.01;100.00;101491.41;1726784;81;21471;-47
2021/03/01 02:58:06;;;;;;;0.10;0.10;;;;;;;0.03;100.00;101497.78;1763181;80;21151;-46
2021/03/01 03:01:06;;;;;;;0.20;0.20;;;;;;;-0.01;100.00;101503.50;1745196;81;21139;-46
2021/03/01 03:04:08;;;;;;;0.40;0.40;;;;;;;0.01;100.00;101501.16;1768021;80;21588;-45
2021/03/01 03:07:09;;;;;;;0.25;0.23;;;;;;;0.04;100.00;101506.16;1742206;80;21177;-46
2021/03/01 03:10:12;;;;;;;0.00;0.00;;;;;;;0.04;100.00;101510.19;1782904;80;21525;-45
2021/03/01 03:13:12;;;;;;;0.10;0.10;;;;;;;0.02;100.00;101510.36;1752793;81;21155;-45
2021/03/01 03:16:12;;;;;;;0.62;0.62;;;;;;;0.03;100.00;101506.67;1724157;82;21549;-46
2021/03/01 03:19:13;;;;;;;0.30;0.30;;;;;;;0.05;100.00;101513.19;1748964;80;21526;-45
2021/03/01 03:22:13;;;;;;;0.20;0.20;;;;;;;0.05;100.00;101517.22;1717962;80;21147;-46
2021/03/01 03:25:17;;;;;;;1.95;0.37;;;;;;;0.05;100.00;101521.25;1744016;81;21635;-46
2021/03/01 03:28:17;;;;;;;0.40;0.23;;;;;;;0.07;100.00;101531.31;1731524;81;21133;-46
2021/03/01 03:31:18;;;;;;;0.10;0.10;;;;;;;0.07;100.00;101538.86;1776177;80;21122;-46
2021/03/01 03:34:20;;;;;;;0.35;0.35;;;;;;;0.07;100.00;101545.58;1774587;79;21178;-45
2021/03/01 03:37:38;;;;;;;0.72;0.72;;;;;;;0.06;100.00;101556.02;1777452;80;21179;-47
2021/03/01 03:40:38;;;;;;;0.10;0.10;;;;;;;0.06;100.00;101553.33;1748322;81;21114;-46
2021/03/01 03:43:39;;;;;;;0.57;0.57;;;;;;;0.07;100.00;101559.53;1772584;79;21118;-46
2021/03/01 03:46:39;;;;;;;0.42;0.42;;;;;;;0.07;100.00;101555.50;1737610;81;21158;-46
2021/03/01 03:49:44;;;;;;;0.30;0.30;;;;;;;0.06;100.00;101545.27;1751699;81;21445;-45
2021/03/01 03:52:45;;;;;;;0.60;0.60;;;;;;;0.06;100.00;101556.02;1773978;79;21490;-45
2021/03/01 03:55:47;;;;;;;0.98;0.93;;;;;;;0.06;100.00;101559.22;1756718;79;21134;-45
2021/03/01 03:58:51;;;;;;;1.62;1.07;;;;;;;0.06;100.00;101569.97;1747965;79;21129;-46
2021/03/01 04:01:52;;;;;;;1.47;1.32;;;;;;;0.08;100.00;101573.32;1764563;80;21149;-46
2021/03/01 04:04:53;;;;;;;0.28;0.28;;;;;;;0.07;100.00;101571.63;1730660;81;21199;-47
2021/03/01 04:07:53;;;;;;;0.30;0.30;;;;;;;0.05;100.00;101573.17;1763051;80;21650;-46
2021/03/01 04:10:57;;;;;;;0.47;0.42;;;;;;;0.07;100.00;101578.34;1807440;79;21154;-47
2021/03/01 04:14:01;;;;;;;0.45;0.45;;;;;;;0.08;100.00;101578.17;1798031;79;21129;-46
2021/03/01 04:17:06;;;;;;;0.75;0.75;;;;;;;0.09;100.00;101581.17;1778784;80;21150;-47
2021/03/01 04:20:06;;;;;;;0.00;0.00;;;;;;;0.07;100.00;101585.89;1762429;81;21154;-46
2021/03/01 04:23:07;;;;;;;0.30;0.30;;;;;;;0.07;100.00;101589.09;1731538;80;21170;-46
2021/03/01 04:26:09;;;;;;;0.50;0.50;;;;;;;0.09;100.00;101595.13;1791091;80;21131;-46
2021/03/01 04:29:11;;;;;;;0.10;0.10;;;;;;;0.09;100.00;101595.96;1755408;81;21170;-46
2021/03/01 04:32:12;;;;;;;0.28;0.28;;;;;;;0.08;100.00;101593.48;1762142;80;21130;-46
2021/03/01 04:35:14;;;;;;;0.10;0.10;;;;;;;0.10;100.00;101603.51;1762667;80;21181;-46
2021/03/01 04:38:14;;;;;;;0.10;0.10;;;;;;;0.11;100.00;101606.55;1787529;80;21133;-46
2021/03/01 04:41:15;;;;;;;0.10;0.10;;;;;;;0.11;100.00;101611.92;1793445;79;21675;-46
2021/03/01 04:44:17;;;;;;;0.37;0.35;;;;;;;0.10;100.00;101620.98;1736783;81;21225;-45
2021/03/01 04:47:17;;;;;;;0.50;0.50;;;;;;;0.11;100.00;101618.12;1763173;80;21183;-45
2021/03/01 04:50:21;;;;;;;1.37;0.62;;;;;;;0.12;100.00;101621.13;1720425;81;21157;-45
2021/03/01 04:53:22;;;;;;;0.47;0.47;;;;;;;0.13;100.00;101626.02;1771119;79;21229;-45
2021/03/01 04:56:22;;;;;;;0.10;0.10;;;;;;;0.12;100.00;101638.59;1781425;79;21125;-46
2021/03/01 04:59:25;;;;;;;0.00;0.00;;;;;;;0.14;100.00;101635.73;1747537;81;21158;-46
2021/03/01 05:02:25;;;;;;;5.10;0.88;;;;;;;0.16;100.00;101645.29;1749904;80;22743;-45
2021/03/01 05:05:27;;;;;;;2.52;0.45;;;;;;;0.17;100.00;101647.46;1752321;80;21161;-45
2021/03/01 05:08:28;;;;;;;1.10;1.10;;;;;;;0.18;100.00;101654.02;1759408;80;21181;-46
2021/03/01 05:11:41;;;;;;;0.17;0.17;;;;;;;0.20;100.00;101653.84;1749490;80;21173;-46
2021/03/01 05:14:41;;;;;;;0.33;0.33;;;;;;;0.21;100.00;101659.53;1746994;80;21155;-47
2021/03/01 05:17:45;;;;;;;0.20;0.20;;;;;;;0.21;100.00;101656.33;1750646;80;21129;-46
2021/03/01 05:20:45;;;;;;;;;;;;;;;0.22;100.00;101663.88;1752484;80;21141;-46
2021/03/01 05:23:45;;;;;;;0.15;0.15;;;;;;;0.24;100.00;101663.20;1753317;80;20275;-45
2021/03/01 05:26:46;;;;;;;1.45;1.20;;;;;;;0.24;100.00;101673.13;1738531;81;21138;-45
2021/03/01 05:29:46;;;;;;;0.35;0.35;;;;;;;0.23;100.00;101682.22;1742103;81;21987;-45
2021/03/01 05:32:47;;;;;;;0.47;0.47;;;;;;;0.25;100.00;101691.77;1767407;80;21482;-45
2021/03/01 05:35:48;;;;;;;0.23;0.23;;;;;;;0.28;100.00;101691.41;1760361;80;21138;-46
2021/03/01 05:38:49;;;;;;;0.30;0.30;;;;;;;0.28;100.00;101692.75;1745490;81;21157;-46
2021/03/01 05:41:49;;;;;;;0.10;0.10;;;;;;;0.30;100.00;101700.12;1774407;80;21112;-46
2021/03/01 05:44:49;;;;;;;0.70;0.70;;;;;;;0.32;100.00;101699.45;1759345;80;21127;-46
2021/03/01 05:47:50;;;;;;;0.20;0.20;;;;;;;0.35;100.00;101714.38;1751857;81;21082;-45
2021/03/01 05:50:51;;;;;;;0.33;0.33;;;;;;;0.36;100.00;101714.18;1742576;81;21614;-45
2021/03/01 05:53:52;;;;;;;0.17;0.17;;;;;;;0.39;100.00;101721.87;1739362;81;21187;-46
2021/03/01 05:56:55;;;;;;;0.20;0.20;;;;;;;0.42;100.00;101720.20;1732148;81;21134;-48
2021/03/01 05:59:58;;;;;;;1.32;1.22;;;;;;;0.45;100.00;101727.58;1769016;80;21442;-46
2021/03/01 06:02:58;;;;;;;0.15;0.15;;;;;;;0.47;100.00;101730.41;1733692;82;21132;-46
2021/03/01 06:05:59;;;;;;;0.20;0.20;;;;;;;0.50;100.00;101742.66;1730965;81;21166;-47
2021/03/01 06:09:00;;;;;;;0.57;0.57;;;;;;;0.52;100.00;101737.91;1740980;81;20975;-46
2021/03/01 06:12:01;;;;;;;0.68;0.62;;;;;;;0.53;100.00;101744.47;1741156;81;21130;-46
2021/03/01 06:15:02;;;;;;;0.40;0.40;;;;;;;0.53;100.00;101745.81;1731294;81;21193;-45
2021/03/01 06:18:17;;;;;;;0.33;0.33;;;;;;;0.54;100.00;101746.64;1737424;81;21132;-47
2021/03/01 06:21:22;;;;;;;0.75;0.55;;;;;;;0.56;100.00;101748.64;1740330;81;21182;-46
2021/03/01 06:24:22;;;;;;;0.05;0.05;;;;;;;0.58;100.00;101752.00;1760879;81;21177;-46
2021/03/01 06:27:23;;;;;;;7.33;0.37;;;;;;;0.59;100.00;101755.86;1741289;81;21187;-46
2021/03/01 06:30:27;;;;;;;0.35;0.35;;;;;;;0.62;100.00;101747.42;1704796;82;21134;-46
2021/03/01 06:33:28;;;;;;;0.00;0.00;;;;;;;0.63;100.00;101763.05;1720104;82;21558;-46
2021/03/01 06:36:29;;;;;;;0.30;0.30;;;;;;;0.64;100.00;101766.05;1730641;82;21206;-47
2021/03/01 06:39:43;;;;;;;0.00;0.00;;;;;;;0.67;100.00;101771.09;1732580;81;21153;-46
2021/03/01 06:42:43;;;;;;;0.10;0.10;;;;;;;0.71;100.00;101785.00;1738741;82;21142;-46
2021/03/01 06:45:44;;;;;;;0.10;0.10;;;;;;;0.71;100.00;101783.66;1729167;82;21160;-46
2021/03/01 06:48:45;;;;;;;0.20;0.20;;;;;;;0.74;100.00;101784.14;1738247;82;21979;-47
2021/03/01 06:51:46;;;;;;;5.92;0.55;;;;;;;0.77;100.00;101787.81;1734912;82;21134;-46
2021/03/01 06:54:46;;;;;;;0.37;0.37;;;;;;;0.80;100.00;101801.41;1728731;81;21743;-46
2021/03/01 06:57:47;;;;;;;1.77;1.65;;;;;;;0.84;100.00;101810.29;1736179;82;21141;-46
2021/03/01 07:00:48;;;;;;;0.75;0.20;;;;;;;0.88;100.00;101823.37;1751609;81;21145;-47
2021/03/01 07:03:51;;;;;;;0.30;0.30;;;;;;;0.88;100.00;101818.82;1711199;82;21199;-47
2021/03/01 07:06:53;;;;;;;0.42;0.42;;;;;;;0.90;100.00;101829.41;1732905;81;21138;-46
2021/03/01 07:10:00;;;;;;;0.00;0.00;;;;;;;0.92;100.00;101832.77;1729474;82;21171;-46
2021/03/01 07:13:00;;;;;;;0.98;0.98;;;;;;;0.91;100.00;101829.73;1748202;81;21584;-46
2021/03/01 07:16:01;;;;;;;0.10;0.10;;;;;;;0.95;100.00;101841.81;1758905;81;21099;-46
2021/03/01 07:19:02;;;;;;;0.75;0.65;;;;;;;0.97;100.00;101851.90;1758450;81;21134;-46
2021/03/01 07:22:05;;;;;;;0.20;0.20;;;;;;;0.97;100.00;101855.94;1723236;81;21680;-47
2021/03/01 07:25:05;;;;;;;0.17;0.17;;;;;;;0.98;100.00;101862.47;1729847;82;21169;-47
2021/03/01 07:28:06;;;;;;;0.20;0.20;;;;;;;0.99;100.00;101869.55;1721528;82;21168;-46
2021/03/01 07:31:07;;;;;;;0.65;0.65;;;;;;;0.99;100.00;101865.98;1718293;82;21451;-46
2021/03/01 07:34:13;;;;;;;0.33;0.33;;;;;;;1.02;100.00;101868.34;1715135;82;21164;-46
2021/03/01 07:37:14;;;;;;;1.15;1.10;;;;;;;1.07;100.00;101869.98;1725044;82;21166;-47
2021/03/01 07:40:15;;;;;;;0.28;0.28;;;;;;;1.07;100.00;101872.16;1709886;82;21182;-46
2021/03/01 07:43:17;;;;;;;0.20;0.20;;;;;;;1.08;100.00;101883.23;1724594;82;26302;-47
2021/03/01 07:46:17;;;;;;;1.52;1.30;;;;;;;1.11;100.00;101879.86;1719439;82;21138;-46
2021/03/01 07:49:20;;;;;;;0.00;0.00;;;;;;;1.10;100.00;101885.77;1714805;82;21235;-47
2021/03/01 07:52:36;;;;;;;0.10;0.10;;;;;;;1.11;100.00;101884.73;1709385;83;21175;-47
2021/03/01 07:55:36;;;;;;;0.65;0.60;;;;;;;1.12;100.00;101889.11;1720767;82;21500;-46
2021/03/01 07:58:36;;;;;;;0.20;0.20;;;;;;;1.13;100.00;101893.47;1729418;82;21142;-48
2021/03/01 08:01:37;;;;;;;0.10;0.10;;;;;;;1.16;100.00;101895.78;1721671;82;21143;-47
2021/03/01 08:04:39;;;;;;;0.45;0.45;;;;;;;1.17;99.98;101900.17;1721338;81;21136;-47
2021/03/01 08:07:47;;;;;;;1.75;0.72;;;;;;;1.19;99.95;101909.43;1722449;82;21670;-47
2021/03/01 08:10:49;;;;;;;0.42;0.42;;;;;;;1.20;99.84;101904.36;1719431;81;21192;-46
2021/03/01 08:13:50;;;;;;;0.00;0.00;;;;;;;1.23;99.74;101911.55;1726215;82;21175;-46
2021/03/01 08:16:50;;;;;;;0.60;0.37;;;;;;;1.24;99.61;101920.48;1721128;82;21480;-46
2021/03/01 08:19:52;;;;;;;0.10;0.10;;;;;;;1.23;99.22;101923.66;1712791;82;21136;-46
2021/03/01 08:23:16;;;;;;;0.25;0.25;;;;;;;1.25;99.33;101910.03;1708582;83;21179;-46
2021/03/01 08:26:16;;;;;;;0.08;0.08;;;;;;;1.27;99.37;101914.22;1708747;82;21152;-46
2021/03/01 08:29:22;;;;;;;0.13;0.13;;;;;;;1.32;98.95;101928.48;1723620;83;21256;-46
2021/03/01 08:32:22;;;;;;;0.30;0.30;;;;;;;1.34;98.44;101929.15;1724931;82;21167;-46
2021/03/01 08:35:32;;;;;;;0.10;0.10;;;;;;;1.38;98.48;101929.61;1723685;83;21158;-46
2021/03/01 08:38:54;;;;;;;0.40;0.40;;;;;;;1.45;98.54;101930.55;1723722;83;21709;-47
2021/03/01 08:41:54;;;;;;;0.40;0.40;;;;;;;1.49;98.27;101935.91;1734885;82;21150;-47
2021/03/01 08:44:59;;;;;;;0.00;0.00;;;;;;;1.55;98.21;101935.16;1737989;82;21159;-46
2021/03/01 08:48:02;;;;;;;0.33;0.33;;;;;;;1.61;97.91;101946.57;1738468;82;21134;-46
2021/03/01 08:51:04;;;;;;;0.30;0.30;;;;;;;1.67;97.73;101944.99;1724441;82;21452;-46
2021/03/01 08:54:05;;;;;;;0.62;0.57;;;;;;;1.74;97.42;101943.76;1724679;82;21140;-46
2021/03/01 08:57:12;;;;;;;1.02;1.02;;;;;;;1.82;97.26;101947.70;1715981;82;21134;-47
2021/03/01 09:00:15;;;;;;;0.70;0.70;;;;;;;1.88;96.49;101950.50;1708571;83;21127;-46
2021/03/01 09:03:29;;;;;;;0.40;0.40;;;;;;;1.91;96.24;101952.83;1732082;82;21445;-47
2021/03/01 09:06:30;;;;;;;0.08;0.08;;;;;;;1.93;95.88;101954.83;1738250;82;21145;-47
2021/03/01 09:09:30;;;;;;;0.40;0.30;;;;;;;2.01;95.43;101961.98;1730743;81;21629;-46
2021/03/01 09:12:31;;;;;;;0.00;0.00;;;;;;;2.11;95.33;101963.89;1708643;83;21161;-47
2021/03/01 09:15:32;;;;;;;0.13;0.13;;;;;;;2.27;94.91;101956.62;1708522;83;21217;-46
2021/03/01 09:18:33;;;;;;;0.10;0.10;;;;;;;2.44;94.74;101959.95;1709142;82;21149;-47
2021/03/01 09:21:44;;;;;;;0.25;0.25;;;;;;;2.62;94.08;101968.98;1709462;82;37977;-46
2021/03/01 09:24:44;;;;;;;0.55;0.55;;;;;;;2.76;93.32;101966.25;1737241;82;21256;-46
2021/03/01 09:27:45;;;;;;;0.20;0.20;;;;;;;2.89;92.16;101973.66;1733507;81;21170;-47
2021/03/01 09:30:45;;;;;;;0.30;0.30;;;;;;;2.98;91.58;101981.97;1732833;82;21186;-50
2021/03/01 09:33:47;;;;;;;0.03;0.03;;;;;;;3.13;90.38;101994.58;1732760;82;21166;-47
2021/03/01 09:36:50;;;;;;;2.95;0.57;;;;;;;3.23;88.97;101997.27;1741883;81;21111;-48
2021/03/01 09:39:50;;;;;;;0.42;0.42;;;;;;;3.34;87.98;102002.70;1721849;81;21265;-48
2021/03/01 09:43:05;;;;;;;2.47;0.60;;;;;;;3.40;87.45;102001.91;1747920;81;21608;-44
2021/03/01 09:46:06;;;;;;;11.70;0.42;;;;;;;3.50;86.89;102004.81;1748304;81;21500;-44
2021/03/01 09:49:11;;;;;;;0.45;0.45;;;;;;;3.58;85.73;102008.19;1763245;81;21670;-47
2021/03/01 09:52:12;;;;;;;0.55;0.35;;;;;;;3.54;83.72;102011.51;1763099;81;21508;-48
2021/03/01 09:55:15;;;;;;;0.30;0.30;;;;;;;3.42;83.54;102016.07;1740048;81;21478;-44
2021/03/01 09:58:36;;;;;;;0.57;0.50;;;;;;;3.33;83.91;102022.63;1733190;81;21624;-48
2021/03/01 10:01:37;;;;;;;0.23;0.23;;;;;;;3.23;82.63;102023.47;1732219;82;21427;-45
2021/03/01 10:04:37;;;;;;;2.17;0.75;;;;;;;3.09;82.26;102017.59;1732254;82;21474;-44
2021/03/01 10:07:39;;;;;;;0.30;0.30;;;;;;;3.00;82.65;102024.47;1715545;83;21188;-43
2021/03/01 10:10:45;;;;;;;0.20;0.20;;;;;;;2.98;83.97;102019.77;1777861;80;21454;-44
2021/03/01 10:13:47;;;;;;;0.10;0.10;;;;;;;3.06;84.17;102021.52;1787231;80;21130;-44
2021/03/01 10:16:48;;;;;;;1.50;0.88;;;;;;;3.18;84.46;102022.69;1787566;80;21169;-44
2021/03/01 10:19:50;;;;;;;0.42;0.42;;;;;;;3.28;84.29;102023.72;1787861;80;21135;-47
2021/03/01 10:23:12;;;;;;;0.30;0.30;;;;;;;3.34;83.98;102033.77;1775870;80;21781;-44
2021/03/01 10:26:25;;;;;;;3.52;0.95;;;;;;;3.32;83.26;102037.18;1787818;80;21154;-48
2021/03/01 10:29:41;;;;;;;0.20;0.20;;;;;;;3.16;82.33;102032.01;1791136;80;21546;-48
2021/03/01 10:32:42;;;;;;;0.10;0.10;;;;;;;3.03;82.66;102029.17;1793309;80;21174;-44
2021/03/01 10:35:42;;;;;;;0.62;0.62;;;;;;;2.96;83.02;102031.27;1793405;80;21611;-47
2021/03/01 10:39:13;;;;;;;0.20;0.20;;;;;;;3.01;83.72;102032.89;1793425;80;21123;-47
2021/03/01 10:42:16;;;;;;;0.10;0.10;;;;;;;3.14;83.80;102027.30;1783454;80;21190;-43
2021/03/01 10:45:19;;;;;;;0.15;0.15;;;;;;;3.21;82.81;102025.52;1736205;81;21480;-45
2021/03/01 10:48:19;;;;;;;0.80;0.30;;;;;;;3.18;82.81;102023.20;1717041;81;21151;-44
2021/03/01 10:51:20;;;;;;;0.00;0.00;;;;;;;3.19;81.71;102025.73;1732558;80;21141;-44
2021/03/01 10:54:20;;;;;;;0.20;0.20;;;;;;;3.14;81.79;102021.41;1755931;80;21162;-43
2021/03/01 10:57:22;;;;;;;0.10;0.10;;;;;;;3.11;81.53;102024.48;1771717;80;21205;-44
2021/03/01 11:00:24;;;;;;;0.20;0.20;;;;;;;3.09;81.99;102025.69;1755413;80;21129;-44
2021/03/01 11:03:25;;;;;;;0.40;0.40;;;;;;;3.10;81.15;102024.16;1741174;80;21102;-43
2021/03/01 11:06:25;;;;;;;0.10;0.10;;;;;;;3.05;80.84;102024.42;1758035;80;21133;-44
2021/03/01 11:09:27;;;;;;;0.17;0.13;;;;;;;3.08;81.49;102022.16;1771534;80;21110;-43
2021/03/01 11:12:27;;;;;;;1.65;0.95;;;;;;;3.17;81.98;102021.55;1771714;80;21161;-44
2021/03/01 11:15:28;;;;;;;0.20;0.20;;;;;;;3.26;81.98;102024.94;1758608;80;21186;-43
2021/03/01 11:18:28;;;;;;;0.25;0.25;;;;;;;3.31;81.26;102024.67;1771923;80;21450;-45
2021/03/01 11:21:29;;;;;;;1.07;0.47;;;;;;;3.31;80.91;102017.92;1771680;80;21138;-44
2021/03/01 11:24:30;;;;;;;4.58;1.65;;;;;;;3.26;80.53;102022.24;1764780;80;21528;-44
2021/03/01 11:27:30;;;;;;;0.10;0.10;;;;;;;3.20;80.90;102019.80;1746516;80;21181;-44
2021/03/01 11:30:32;;;;;;;0.00;0.00;;;;;;;3.18;81.27;102015.09;1740424;82;21253;-45
2021/03/01 11:33:33;;;;;;;0.25;0.25;;;;;;;3.26;81.20;102016.31;1740484;82;21146;-45
2021/03/01 11:36:34;;;;;;;0.37;0.37;;;;;;;3.34;80.78;102012.16;1748141;81;21434;-44
2021/03/01 11:39:34;;;;;;;0.03;0.03;;;;;;;3.25;79.64;102017.88;1769327;81;21783;-44
2021/03/01 11:42:35;;;;;;;0.23;0.20;;;;;;;3.14;79.90;102013.80;1770164;81;21567;-45
2021/03/01 11:45:35;;;;;;;0.05;0.05;;;;;;;3.15;80.52;102019.02;1769015;81;21521;-43
2021/03/01 11:48:37;;;;;;;0.30;0.30;;;;;;;3.18;80.23;102017.28;1761552;81;21185;-44
2021/03/01 11:51:38;;;;;;;0.10;0.10;;;;;;;3.23;79.80;102016.19;1678760;84;21577;-45
2021/03/01 11:54:38;;;;;;;0.10;0.10;;;;;;;3.27;80.07;102015.30;1677865;84;20968;-44
2021/03/01 11:57:39;;;;;;;0.23;0.23;;;;;;;3.33;79.91;102017.22;1737285;81;21103;-45
2021/03/01 12:00:40;;;;;;;0.00;0.00;;;;;;;3.35;79.60;102016.52;1739970;81;21246;-44
2021/03/01 12:03:43;;;;;;;0.00;0.00;;;;;;;3.37;79.40;102020.39;1738630;81;21143;-44
2021/03/01 12:06:43;;;;;;;0.53;0.53;;;;;;;3.37;79.46;102021.22;1740802;81;21279;-47
2021/03/01 12:09:46;;;;;;;0.50;0.50;;;;;;;3.42;79.99;102029.58;1734165;81;21132;-47
2021/03/01 12:12:46;;;;;;;1.37;0.30;;;;;;;3.55;79.80;102032.09;1735049;82;21498;-46
2021/03/01 12:15:47;;;;;;;0.10;0.10;;;;;;;3.62;79.83;102034.34;1743379;81;21233;-47
2021/03/01 12:18:47;;;;;;;0.30;0.30;;;;;;;3.68;79.76;102035.42;1750093;81;21118;-46
2021/03/01 12:21:48;;;;;;;0.05;0.05;;;;;;;3.72;79.61;102030.78;1734021;82;21149;-47
2021/03/01 12:24:48;;;;;;;0.17;0.17;;;;;;;3.76;79.15;102030.72;1734991;81;21502;-43
2021/03/01 12:27:48;;;;;;;0.00;0.00;;;;;;;3.81;78.89;102028.27;1735225;82;21146;-44
2021/03/01 12:30:49;;;;;;;0.65;0.45;;;;;;;3.82;78.61;102028.57;1736186;82;21311;-44
2021/03/01 12:33:52;;;;;;;0.10;0.10;;;;;;;3.78;78.41;102038.09;1734974;82;21147;-44
2021/03/01 12:36:52;;;;;;;0.08;0.08;;;;;;;3.71;78.50;102039.94;1726390;82;21190;-45
2021/03/01 12:39:54;;;;;;;0.53;0.33;;;;;;;3.66;78.63;102036.46;1742410;81;21112;-46
2021/03/01 12:42:55;;;;;;;0.70;0.70;;;;;;;3.62;78.80;102039.22;1740490;82;21209;-45
2021/03/01 12:45:56;;;;;;;1.07;1.07;;;;;;;3.61;79.10;102040.76;1739669;82;21098;-45
2021/03/01 12:48:56;;;;;;;0.30;0.30;;;;;;;3.61;79.46;102041.62;1733651;82;21139;-48
2021/03/01 12:51:57;;;;;;;0.08;0.08;;;;;;;3.60;79.56;102039.93;1736818;82;21153;-49
2021/03/01 12:54:58;;;;;;;0.40;0.40;;;;;;;3.59;79.88;102036.92;1740163;82;21122;-48
2021/03/01 12:57:58;;;;;;;1.77;0.35;;;;;;;3.61;80.04;102038.05;1739608;82;21189;-48
2021/03/01 13:00:59;;;;;;;0.72;0.72;;;;;;;3.64;79.78;102037.69;1732115;82;21181;-48
2021/03/01 13:04:01;;;;;;;0.20;0.20;;;;;;;3.66;79.72;102035.63;1721902;82;21212;-49
2021/03/01 13:07:02;;;;;;;0.65;0.65;;;;;;;3.69;79.69;102040.64;1739658;82;21184;-48
2021/03/01 13:10:04;;;;;;;0.30;0.30;;;;;;;3.64;79.82;102043.09;1740273;82;21610;-48
2021/03/01 13:13:05;;;;;;;0.10;0.10;;;;;;;3.60;79.78;102052.62;1740114;82;21150;-49
2021/03/01 13:16:05;;;;;;;1.17;0.28;;;;;;;3.57;79.95;102055.71;1741136;82;21801;-46
2021/03/01 13:19:06;;;;;;;0.30;0.30;;;;;;;3.54;79.86;102057.45;1739753;82;21218;-44
2021/03/01 13:22:06;;;;;;;0.17;0.17;;;;;;;3.43;79.88;102055.56;1711501;83;21564;-45
2021/03/01 13:25:07;;;;;;;0.20;0.20;;;;;;;3.33;80.12;102051.52;1725562;82;21168;-45
2021/03/01 13:28:07;;;;;;;0.15;0.15;;;;;;;3.25;80.46;102044.38;1727249;82;21148;-45
2021/03/01 13:31:08;;;;;;;0.53;0.53;;;;;;;3.22;80.40;102052.88;1763190;81;21154;-44
2021/03/01 13:34:10;;;;;;;0.25;0.25;;;;;;;3.15;80.59;102058.19;1767592;80;21145;-45
2021/03/01 13:37:10;;;;;;;1.55;0.68;;;;;;;3.04;80.81;102055.14;1738100;81;21613;-45
2021/03/01 13:40:12;;;;;;;0.20;0.20;;;;;;;2.96;80.93;102056.09;1737691;81;21161;-45
2021/03/01 13:43:12;;;;;;;0.17;0.17;;;;;;;2.83;81.06;102050.03;1737698;81;21174;-44
2021/03/01 13:46:13;;;;;;;0.37;0.33;;;;;;;2.70;81.29;102053.92;1757444;80;21130;-46
2021/03/01 13:49:14;;;;;;;0.03;0.03;;;;;;;2.56;81.56;102056.95;1751504;81;21305;-45
2021/03/01 13:52:14;;;;;;;1.45;0.40;;;;;;;2.42;81.80;102054.56;1764042;80;21432;-45
2021/03/01 13:55:17;;;;;;;0.10;0.10;;;;;;;2.30;82.09;102058.74;1756532;80;21103;-45
2021/03/01 13:58:17;;;;;;;0.42;0.42;;;;;;;2.18;82.37;102051.64;1755408;81;21150;-45
2021/03/01 14:01:21;;;;;;;0.35;0.35;;;;;;;2.08;82.70;102058.66;1756726;81;21143;-46
2021/03/01 14:04:20;;;;;;;0.10;0.10;;;;;;;2.02;83.09;102070.16;1756893;81;21130;-44
2021/03/01 14:07:22;;;;;;;0.20;0.20;;;;;;;1.98;83.32;102060.77;1751758;81;21123;-45
2021/03/01 14:10:22;;;;;;;0.10;0.10;;;;;;;1.96;83.68;102060.12;1751660;81;21166;-45